METAR AND TAF INFORMATION
METAR FOR CYVR
ADDS - METARS form results

(1917 UTC 26 April 2018)
Data provider http://aviationweather.gov/adds/metars/
 
METAR text: CYVR 261900Z 29008KT 30SM SKC 17/11 A3004 RMK SLP173 DENSITY ALT 100FT
Conditions at: CYVR (VANCOUVER INTL A, BC, CA) observed 1900 UTC 26 April 2018
Temperature: 17.0°C (63°F)
Dewpoint: 11.0°C (52°F) [RH = 68%]
Pressure (altimeter): 30.04 inches Hg (1017.4 mb)
[Sea-level pressure: 1017.3 mb]
Winds: from the WNW (290 degrees) at 9 MPH (8 knots; 4.2 m/s)
Visibility: 30 miles (48 km)
Ceiling: at least 12,000 feet AGL
Clouds: clear skies
Weather: no significant weather observed at this time

Forecast for: CYVR (VANCOUVER INTL A, BC, CA)
Text: TAF CYVR 261738Z 2618/2724 28007KT P6SM SKC
Forecast period: 1800 UTC 26 April 2018 to 0300 UTC 27 April 2018
Forecast type: FROM: standard forecast or significant change
Winds: from the W (280 degrees) at 8 MPH (7 knots; 3.6 m/s)
Visibility: 6 or more miles (10+ km)
Clouds: clear skies
Weather: no significant weather forecast for this period
Forecast for: CYVR (VANCOUVER INTL A, BC, CA)
Text: TAF CYVR 261738Z 2618/2724 28007KT P6SM SKC
Forecast period: 1800 UTC 26 April 2018 to 0300 UTC 27 April 2018
Forecast type: FROM: standard forecast or significant change
Winds: from the W (280 degrees) at 8 MPH (7 knots; 3.6 m/s)
Visibility: 6 or more miles (10+ km)
Clouds: clear skies
Weather: no significant weather forecast for this period
Forecast for: CYVR (VANCOUVER INTL A, BC, CA)
Text: TAF CYVR 261738Z 2618/2724 28007KT P6SM SKC
Forecast period: 0300 to 1800 UTC 27 April 2018
Forecast type: BECOMING: Conditions expected to become as follows by 0500 UTC 27 April 2018
Winds: variable direction winds at 3 MPH (3 knots; 1.6 m/s)
Visibility: 6 or more miles (10+ km)
Clouds: clear skies
Weather: no significant weather forecast for this period
Forecast for: CYVR (VANCOUVER INTL A, BC, CA)
Text: TAF CYVR 261738Z 2618/2724 28007KT P6SM SKC
Forecast period: 0300 to 1800 UTC 27 April 2018
Forecast type: BECOMING: Conditions expected to become as follows by 0500 UTC 27 April 2018
Winds: variable direction winds at 3 MPH (3 knots; 1.6 m/s)
Visibility: 6 or more miles (10+ km)
Clouds: clear skies
Weather: no significant weather forecast for this period
Forecast for: CYVR (VANCOUVER INTL A, BC, CA)
Text: TAF CYVR 261738Z 2618/2724 28007KT P6SM SKC
Forecast period: 1800 UTC 27 April 2018 to 0000 UTC 28 April 2018
Forecast type: BECOMING: Conditions expected to become as follows by 2000 UTC 27 April 2018
Winds: from the W (270 degrees) at 9 MPH (8 knots; 4.2 m/s)
Visibility: 6 or more miles (10+ km)
Clouds: clear skies
Weather: no significant weather forecast for this period
Forecast for: CYVR (VANCOUVER INTL A, BC, CA)
Text: TAF CYVR 261738Z 2618/2724 28007KT P6SM SKC
Forecast period: 1800 UTC 27 April 2018 to 0000 UTC 28 April 2018
Forecast type: BECOMING: Conditions expected to become as follows by 2000 UTC 27 April 2018
Winds: from the W (270 degrees) at 9 MPH (8 knots; 4.2 m/s)
Visibility: 6 or more miles (10+ km)
Clouds: clear skies
Weather: no significant weather forecast for this period

 AIRPORT MAP

 RUNWAY INFORMATION
Runway 08L Runway length 9940 ft Runway width 200 ft
Runway elevation 14 ft Runway displaced threshold 0 ft Runway heading 99
Runway 26R Runway length 9940 ft Runway width 200 ft
Runway elevation 9 ft Runway displaced threshold 0 ft Runway heading 279
Runway 08R Runway length 11500 ft Runway width 200 ft
Runway elevation 9 ft Runway displaced threshold 500 ft Runway heading 100
Runway 26L Runway length 11500 ft Runway width 200 ft
Runway elevation 6 ft Runway displaced threshold 0 ft Runway heading 280
Runway 13 Runway length 7300 ft Runway width 200 ft
Runway elevation 8 ft Runway displaced threshold 0 ft Runway heading 142
Runway 31 Runway length 7300 ft Runway width 200 ft
Runway elevation 7 ft Runway displaced threshold 0 ft Runway heading 322
Runway XX Runway length 3500 ft Runway width 75 ft
Runway elevation 8 ft Runway displaced threshold 0 ft Runway heading 100
Runway 26A Runway length 3500 ft Runway width 75 ft
Runway elevation 8 ft Runway displaced threshold 0 ft Runway heading 280

 AIRPORT FREQUENCIES
Type APP Name APP Frequency 128.6 MHZ
Type ATIS Name ATIS Frequency 124.6 MHZ
Type CLD Name CLNC DEL Frequency 121.4 MHZ
Type DEP Name DEP Frequency 126.125 MHZ
Type GND Name GND Frequency 121.7 MHZ
Type RCO Name PACIFIC RD Frequency 123.15 MHZ
Type TWR Name TWR Frequency 23.66 MHZ
Type TWR Name TWR Frequency 118.7 MHZ

 AIRPORT NEAR NAVIGATION AIDS
Type DME Name Vancouver Frequency 111100 KHZ
Type DME Name Vancouver Frequency 111900 KHZ
Type DME Name Vancouver Frequency 109500 KHZ
Type NDB Name Vancouver Frequency 266 KHZ
Type NDB Name White Rock Frequency 332 KHZ
Type VORTAC Name Vancouver Frequency 115900 KHZ
Type NDB Name Sea Island Frequency 368 KHZ
Type NDB Name Barnes Frequency 356 KHZ



v2.6.1